createdAt,value
2023-02-06T00:01:36.709Z,41.00
2023-02-06T00:04:04.363Z,43.20
2023-02-06T00:06:31.769Z,40.00
2023-02-06T00:08:59.068Z,28.43
2023-02-06T00:11:26.577Z,93.93
2023-02-06T00:13:53.746Z,43.80
2023-02-06T00:16:20.747Z,39.60
2023-02-06T00:18:48.505Z,63.00
2023-02-06T00:21:15.929Z,41.73
2023-02-06T00:23:43.145Z,168.57
2023-02-06T00:26:10.086Z,63.23
2023-02-06T00:28:37.290Z,32.33
2023-02-06T00:31:08.809Z,44.30
2023-02-06T00:33:36.625Z,31.53
2023-02-06T00:36:04.251Z,48.13
2023-02-06T00:38:31.792Z,40.30
2023-02-06T00:40:58.837Z,57.77
2023-02-06T00:43:26.137Z,52.23
2023-02-06T00:45:57.545Z,59.83
2023-02-06T00:48:25.677Z,34.37
2023-02-06T00:50:53.620Z,57.23
2023-02-06T00:53:21.843Z,57.53
2023-02-06T00:55:48.907Z,51.83
2023-02-06T00:58:16.206Z,29.00
2023-02-06T01:00:43.201Z,141.93
2023-02-06T01:03:10.772Z,39.87
2023-02-06T01:05:37.952Z,31.70
2023-02-06T01:08:05.350Z,30.73
2023-02-06T01:10:32.579Z,68.90
2023-02-06T01:13:00.179Z,36.63
2023-02-06T01:15:27.208Z,154.03
2023-02-06T01:17:54.434Z,40.10
2023-02-06T01:20:23.044Z,34.80
2023-02-06T01:25:17.179Z,31.67
2023-02-06T01:27:44.856Z,30.83
2023-02-06T01:30:12.502Z,28.07
2023-02-06T01:32:41.700Z,32.75
2023-02-06T01:37:40.187Z,30.77
2023-02-06T01:40:10.175Z,31.83
2023-02-06T01:42:38.408Z,33.57
2023-02-06T01:45:24.085Z,25.30
2023-02-06T01:47:58.008Z,31.07
2023-02-06T01:50:24.985Z,34.23
2023-02-06T01:52:52.607Z,29.70
2023-02-06T01:55:19.794Z,38.50
2023-02-06T01:57:47.153Z,33.10
2023-02-06T02:00:14.214Z,31.40
2023-02-06T02:02:45.146Z,32.53
2023-02-06T02:05:12.927Z,33.27
2023-02-06T02:07:50.128Z,30.02
2023-02-06T02:10:17.462Z,33.33
2023-02-06T02:12:44.667Z,32.20
2023-02-06T02:15:11.697Z,30.53
2023-02-06T02:17:47.050Z,30.03
2023-02-06T02:20:35.728Z,27.73
2023-02-06T02:23:16.976Z,31.40
2023-02-06T02:26:08.919Z,33.37
2023-02-06T02:28:54.621Z,31.63
2023-02-06T02:31:33.764Z,29.50
2023-02-06T02:34:31.950Z,30.37
2023-02-06T02:37:17.736Z,30.30
2023-02-06T02:39:53.786Z,28.07
2023-02-06T02:42:27.990Z,33.77
2023-02-06T02:45:00.160Z,31.13
2023-02-06T02:47:32.076Z,29.50
2023-02-06T02:50:03.081Z,32.27
2023-02-06T02:52:29.985Z,34.93
2023-02-06T02:54:57.152Z,32.73
2023-02-06T02:57:29.836Z,32.97
2023-02-06T02:59:59.832Z,32.30
2023-02-06T03:02:40.958Z,33.33
2023-02-06T03:05:11.617Z,30.77
2023-02-06T03:08:22.069Z,29.47
2023-02-06T03:10:56.309Z,34.63
2023-02-06T03:13:27.315Z,29.77
2023-02-06T03:16:16.730Z,29.33
2023-02-06T03:18:50.996Z,31.43
2023-02-06T03:21:20.979Z,29.03
2023-02-06T03:23:52.764Z,30.27
2023-02-06T03:26:23.847Z,30.40
2023-02-06T03:28:55.890Z,29.43
2023-02-06T03:31:39.081Z,32.17
2023-02-06T03:34:13.485Z,30.23
2023-02-06T03:36:41.183Z,29.37
2023-02-06T03:39:08.214Z,29.53
2023-02-06T03:41:37.906Z,29.27
2023-02-06T03:44:09.430Z,27.67
2023-02-06T03:46:39.923Z,31.33
2023-02-06T03:49:11.819Z,28.33
2023-02-06T03:52:14.015Z,28.07
2023-02-06T03:54:46.078Z,34.17
2023-02-06T03:57:19.414Z,34.87
2023-02-06T03:59:47.402Z,30.93
2023-02-06T04:02:16.970Z,29.38
2023-02-06T04:04:45.566Z,30.17
2023-02-06T04:09:42.764Z,31.97
2023-02-06T04:12:10.217Z,31.87
2023-02-06T04:14:37.498Z,29.60
2023-02-06T04:17:05.721Z,31.37
2023-02-06T04:19:33.457Z,29.83
2023-02-06T04:22:01.168Z,28.35
2023-02-06T04:24:29.924Z,33.67
2023-02-06T04:26:58.544Z,31.60
2023-02-06T04:29:25.680Z,27.03
2023-02-06T04:31:52.953Z,29.03
2023-02-06T04:34:19.897Z,29.47
2023-02-06T04:36:46.812Z,30.30
2023-02-06T04:39:13.942Z,31.03
2023-02-06T04:41:40.810Z,26.60
2023-02-06T04:44:07.990Z,25.33
2023-02-06T04:46:34.920Z,27.43
2023-02-06T04:49:02.282Z,29.37
2023-02-06T04:51:29.197Z,32.77
2023-02-06T04:53:56.445Z,24.80
2023-02-06T04:56:25.599Z,25.93
2023-02-06T04:58:52.952Z,29.07
2023-02-06T05:01:20.534Z,27.33
2023-02-06T05:03:48.376Z,28.73
2023-02-06T05:06:15.816Z,29.23
2023-02-06T05:08:43.504Z,29.90
2023-02-06T05:11:10.428Z,25.43
2023-02-06T05:13:37.718Z,29.33
2023-02-06T05:16:06.883Z,28.23
2023-02-06T05:18:34.550Z,34.13
2023-02-06T05:21:01.683Z,29.83
2023-02-06T05:23:28.952Z,32.63
2023-02-06T05:25:55.979Z,32.93
2023-02-06T05:28:23.138Z,31.83
2023-02-06T05:30:50.262Z,34.90
2023-02-06T05:33:19.012Z,29.83
2023-02-06T05:35:46.183Z,33.42
2023-02-06T05:38:13.411Z,30.27
2023-02-06T05:40:40.341Z,31.53
2023-02-06T05:43:08.564Z,35.90
2023-02-06T05:45:36.202Z,32.97
2023-02-06T05:48:03.661Z,38.53
2023-02-06T05:50:30.545Z,45.17
2023-02-06T05:52:57.792Z,44.47
2023-02-06T05:55:25.125Z,55.33
2023-02-06T05:57:52.322Z,64.63
2023-02-06T06:00:19.431Z,72.80
2023-02-06T06:02:46.755Z,62.33
2023-02-06T06:05:13.648Z,47.60
2023-02-06T06:07:41.082Z,47.43
2023-02-06T06:10:08.416Z,26.90
2023-02-06T06:12:35.707Z,36.30
2023-02-06T06:15:02.596Z,50.20
2023-02-06T06:17:29.809Z,54.57
2023-02-06T06:19:56.698Z,60.07
2023-02-06T06:22:23.882Z,61.10
2023-02-06T06:24:51.071Z,70.93
2023-02-06T06:27:18.329Z,55.23
2023-02-06T06:29:45.250Z,39.80
2023-02-06T06:32:12.677Z,35.77
2023-02-06T06:34:39.674Z,35.53
2023-02-06T06:37:06.936Z,111.50
2023-02-06T06:39:33.827Z,43.00
2023-02-06T06:42:01.031Z,47.73
2023-02-06T06:44:28.015Z,41.43
2023-02-06T06:46:55.238Z,109.50
2023-02-06T06:49:22.201Z,51.03
2023-02-06T06:51:49.389Z,53.50
2023-02-06T06:54:16.435Z,76.53
2023-02-06T06:56:43.708Z,57.87
2023-02-06T06:59:10.568Z,36.63
2023-02-06T07:01:37.756Z,45.37
2023-02-06T07:04:04.881Z,42.70
2023-02-06T07:06:32.166Z,230.60
2023-02-06T07:08:59.062Z,337.73
2023-02-06T07:11:26.921Z,228.33
2023-02-06T07:13:53.841Z,89.30
2023-02-06T07:16:21.041Z,59.80
2023-02-06T07:18:47.973Z,53.40
2023-02-06T07:21:16.059Z,36.33
2023-02-06T07:23:42.968Z,42.57
2023-02-06T07:26:10.178Z,42.33
2023-02-06T07:28:37.095Z,43.93
2023-02-06T07:31:06.726Z,65.23
2023-02-06T07:33:34.910Z,46.37
2023-02-06T07:36:04.033Z,38.72
2023-02-06T07:41:02.845Z,37.93
2023-02-06T07:43:30.431Z,40.67
2023-02-06T07:46:02.096Z,30.50
2023-02-06T07:48:29.337Z,116.20
2023-02-06T07:50:57.892Z,73.07
2023-02-06T07:53:24.831Z,88.55
2023-02-06T07:55:52.511Z,78.20
2023-02-06T07:58:19.428Z,46.03
2023-02-06T08:00:46.697Z,33.40
2023-02-06T08:03:13.963Z,95.37
2023-02-06T08:05:41.259Z,94.83
2023-02-06T08:08:09.893Z,40.60
2023-02-06T08:13:05.598Z,45.97
2023-02-06T08:15:32.868Z,83.70
2023-02-06T08:17:59.910Z,84.13
2023-02-06T08:20:27.145Z,56.53
2023-02-06T08:22:54.707Z,64.60
2023-02-06T08:25:21.992Z,31.33
2023-02-06T08:27:53.111Z,25.33
2023-02-06T08:30:21.004Z,21.90
2023-02-06T08:32:48.048Z,78.20
2023-02-06T08:35:15.373Z,42.30
2023-02-06T08:37:42.304Z,39.87
2023-02-06T08:40:10.262Z,39.00
2023-02-06T08:42:37.189Z,48.90
2023-02-06T08:45:04.768Z,45.77
2023-02-06T08:47:31.692Z,28.23
2023-02-06T08:50:00.099Z,32.97
2023-02-06T08:54:54.963Z,31.43
2023-02-06T08:57:22.205Z,31.27
2023-02-06T08:59:50.039Z,30.23
2023-02-06T09:02:17.040Z,23.90
2023-02-06T09:04:44.309Z,35.67
2023-02-06T09:07:11.260Z,33.27
2023-02-06T09:09:38.603Z,24.10
2023-02-06T09:12:05.676Z,17.33
2023-02-06T09:14:32.918Z,21.63
2023-02-06T09:16:59.848Z,17.40
2023-02-06T09:19:27.311Z,16.30
2023-02-06T09:21:54.248Z,13.63
2023-02-06T09:24:21.497Z,30.07
2023-02-06T09:27:03.754Z,98.80
2023-02-06T09:29:32.078Z,24.03
2023-02-06T09:31:59.868Z,36.42
2023-02-06T09:34:27.660Z,33.73
2023-02-06T09:36:55.150Z,25.50
2023-02-06T09:39:22.485Z,16.80
2023-02-06T09:41:56.760Z,20.30
2023-02-06T09:44:34.529Z,24.40
2023-02-06T09:47:29.050Z,21.60
2023-02-06T09:50:02.803Z,14.83
2023-02-06T09:52:50.098Z,85.63
2023-02-06T09:55:32.294Z,349.90
2023-02-06T09:58:23.351Z,247.90
2023-02-06T10:01:11.839Z,73.33
2023-02-06T10:04:05.702Z,29.75
2023-02-06T10:07:14.475Z,20.47
2023-02-06T10:09:56.357Z,139.30
2023-02-06T10:12:31.328Z,80.03
2023-02-06T10:15:07.478Z,26.77
2023-02-06T10:17:38.146Z,39.00
2023-02-06T10:20:30.639Z,156.57
2023-02-06T10:22:57.722Z,27.23
2023-02-06T10:25:33.507Z,22.93
2023-02-06T10:28:28.296Z,27.73
2023-02-06T10:31:25.923Z,27.73
2023-02-06T10:34:13.160Z,44.95
2023-02-06T10:36:58.955Z,18.83
2023-02-06T10:39:46.096Z,11.97
2023-02-06T10:42:22.796Z,36.47
2023-02-06T10:45:19.739Z,17.57
2023-02-06T10:47:56.459Z,53.70
2023-02-06T10:50:45.049Z,29.47
2023-02-06T10:53:19.719Z,18.48
2023-02-06T10:55:56.214Z,21.27
2023-02-06T10:58:35.213Z,62.87
2023-02-06T11:01:13.893Z,23.40
2023-02-06T11:04:03.441Z,35.73
2023-02-06T11:06:31.315Z,39.03
2023-02-06T11:08:58.376Z,61.13
2023-02-06T11:11:32.123Z,28.37
2023-02-06T11:14:05.546Z,24.43
2023-02-06T11:16:36.162Z,23.23
2023-02-06T11:19:25.468Z,144.73
2023-02-06T11:22:04.574Z,21.77
2023-02-06T11:24:31.767Z,33.70
2023-02-06T11:27:18.697Z,41.60
2023-02-06T11:29:50.996Z,106.47
2023-02-06T11:32:40.842Z,40.43
2023-02-06T11:35:42.985Z,88.53
2023-02-06T11:38:21.858Z,62.27
2023-02-06T11:41:18.544Z,38.85
2023-02-06T11:43:51.045Z,36.47
2023-02-06T11:46:27.015Z,30.60
2023-02-06T11:48:58.624Z,30.73
2023-02-06T11:51:26.651Z,32.57
2023-02-06T11:53:57.344Z,80.22
2023-02-06T11:56:24.959Z,67.77
2023-02-06T11:59:06.772Z,379.20
2023-02-06T12:01:51.928Z,126.67
2023-02-06T12:04:26.343Z,73.57
2023-02-06T12:07:02.365Z,168.77
2023-02-06T12:09:29.655Z,89.90
2023-02-06T12:11:59.366Z,122.40
2023-02-06T12:14:36.362Z,140.97
2023-02-06T12:17:08.617Z,82.00
2023-02-06T12:19:48.845Z,91.40
2023-02-06T12:22:23.858Z,34.47
2023-02-06T12:24:56.632Z,37.93
2023-02-06T12:27:24.283Z,38.27
2023-02-06T12:29:59.818Z,42.53
2023-02-06T12:32:43.853Z,48.40
2023-02-06T12:35:27.989Z,61.60
2023-02-06T12:38:04.977Z,53.53
2023-02-06T12:40:48.287Z,38.30
2023-02-06T12:43:18.094Z,30.43
2023-02-06T12:45:45.256Z,33.57
2023-02-06T12:48:47.299Z,116.97
2023-02-06T12:51:43.796Z,33.10
2023-02-06T12:54:23.423Z,47.17
2023-02-06T12:57:14.580Z,24.87
2023-02-06T13:00:07.624Z,29.63
2023-02-06T13:02:40.838Z,31.83
2023-02-06T13:05:22.290Z,52.13
2023-02-06T13:07:51.145Z,50.43
2023-02-06T13:10:28.105Z,32.28
2023-02-06T13:12:59.754Z,27.00
2023-02-06T13:15:31.348Z,89.43
2023-02-06T13:17:58.882Z,36.43
2023-02-06T13:20:26.793Z,48.40
2023-02-06T13:23:15.708Z,27.67
2023-02-06T13:25:45.281Z,65.68
2023-02-06T13:28:25.766Z,26.70
2023-02-06T13:31:24.076Z,24.50
2023-02-06T13:34:01.261Z,48.13
2023-02-06T13:36:44.053Z,25.03
2023-02-06T13:39:30.222Z,24.27
2023-02-06T13:42:01.155Z,103.57
2023-02-06T13:44:32.254Z,39.43
2023-02-06T13:47:11.817Z,42.27
2023-02-06T13:49:59.964Z,119.50
2023-02-06T13:52:42.510Z,47.07
2023-02-06T13:55:32.998Z,100.97
2023-02-06T13:58:05.660Z,58.43
2023-02-06T14:00:38.365Z,81.87
2023-02-06T14:03:28.589Z,184.30
2023-02-06T14:06:20.796Z,58.13
2023-02-06T14:09:10.313Z,22.97
2023-02-06T14:12:35.735Z,20.40
2023-02-06T14:15:24.632Z,55.33
2023-02-06T14:17:56.917Z,38.00
2023-02-06T14:20:56.712Z,27.57
2023-02-06T14:23:45.626Z,38.00
2023-02-06T14:26:32.045Z,44.63
2023-02-06T14:29:09.356Z,41.67
2023-02-06T14:31:44.369Z,30.60
2023-02-06T14:35:01.270Z,49.80
2023-02-06T14:37:38.289Z,32.93
2023-02-06T14:40:15.470Z,22.87
2023-02-06T14:42:44.991Z,21.47
2023-02-06T14:45:42.189Z,30.63
2023-02-06T14:48:26.056Z,26.50
2023-02-06T14:50:57.298Z,45.40
2023-02-06T14:53:40.144Z,44.43
2023-02-06T14:56:12.470Z,42.23
2023-02-06T14:58:39.407Z,52.37
2023-02-06T15:01:18.932Z,33.73
2023-02-06T15:03:47.811Z,39.87
2023-02-06T15:06:29.540Z,51.00
2023-02-06T15:08:57.020Z,37.07
2023-02-06T15:11:32.539Z,35.77
2023-02-06T15:14:02.916Z,43.53
2023-02-06T15:16:31.029Z,36.63
2023-02-06T15:19:13.256Z,33.80
2023-02-06T15:21:43.091Z,34.47
2023-02-06T15:24:36.227Z,32.40
2023-02-06T15:27:30.914Z,27.93
2023-02-06T15:29:59.426Z,33.20
2023-02-06T15:35:00.663Z,30.77
2023-02-06T15:37:32.686Z,33.85
2023-02-06T15:40:32.413Z,33.10
2023-02-06T15:43:01.857Z,39.83
2023-02-06T15:45:50.139Z,43.00
2023-02-06T15:48:30.553Z,38.53
2023-02-06T15:51:26.596Z,37.90
2023-02-06T15:54:06.438Z,47.20
2023-02-06T15:56:40.830Z,146.53
2023-02-06T15:59:20.453Z,194.00
2023-02-06T16:01:48.701Z,178.33
2023-02-06T16:04:19.877Z,271.85
2023-02-06T16:06:58.879Z,250.53
2023-02-06T16:09:26.847Z,207.93
2023-02-06T16:11:57.043Z,248.33
2023-02-06T16:14:30.874Z,275.27
2023-02-06T16:17:09.973Z,309.93
2023-02-06T16:20:02.784Z,376.50
2023-02-06T16:22:40.225Z,294.37
2023-02-06T16:25:31.209Z,305.50
2023-02-06T16:27:59.275Z,293.73
2023-02-06T16:30:33.165Z,309.00
2023-02-06T16:33:28.238Z,307.30
2023-02-06T16:35:55.446Z,249.57
2023-02-06T16:38:22.361Z,275.17
2023-02-06T16:40:52.817Z,218.37
2023-02-06T16:43:20.312Z,217.30
2023-02-06T16:45:49.180Z,166.07
2023-02-06T16:48:18.172Z,251.35
2023-02-06T16:50:48.357Z,780.00
2023-02-06T16:53:23.016Z,627.17
2023-02-06T16:55:51.046Z,476.73
2023-02-06T16:58:24.174Z,270.05
2023-02-06T17:00:51.459Z,308.37
2023-02-06T17:03:18.904Z,281.93
2023-02-06T17:05:47.607Z,311.05
2023-02-06T17:08:24.552Z,367.30
2023-02-06T17:10:52.226Z,357.83
2023-02-06T17:13:21.893Z,334.67
2023-02-06T17:15:52.334Z,376.17
2023-02-06T17:18:21.449Z,360.33
2023-02-06T17:20:56.338Z,445.10
2023-02-06T17:23:23.867Z,424.13
2023-02-06T17:25:52.157Z,401.55
2023-02-06T17:28:20.563Z,373.95
2023-02-06T17:30:48.996Z,374.37
2023-02-06T17:33:16.094Z,410.48
2023-02-06T17:35:43.693Z,326.53
2023-02-06T17:38:10.809Z,355.33
2023-02-06T17:40:41.000Z,271.97
2023-02-06T17:43:08.254Z,348.43
2023-02-06T17:45:38.931Z,340.33
2023-02-06T17:48:06.868Z,315.93
2023-02-06T17:50:37.025Z,294.98
2023-02-06T17:53:06.022Z,287.53
2023-02-06T17:55:35.320Z,277.87
2023-02-06T17:58:02.247Z,290.83
2023-02-06T18:00:29.632Z,271.03
2023-02-06T18:02:58.179Z,307.40
2023-02-06T18:05:26.295Z,287.53
2023-02-06T18:07:53.483Z,322.40
2023-02-06T18:10:22.869Z,291.27
2023-02-06T18:12:50.352Z,321.97
2023-02-06T18:15:17.963Z,196.95
2023-02-06T18:17:45.114Z,302.43
2023-02-06T18:20:12.794Z,281.70
2023-02-06T18:22:42.602Z,216.07
2023-02-06T18:25:13.047Z,246.67
2023-02-06T18:27:41.461Z,252.20
2023-02-06T18:30:09.936Z,284.67
2023-02-06T18:32:38.267Z,273.83
2023-02-06T18:37:33.115Z,293.90
2023-02-06T18:40:00.391Z,282.07
2023-02-06T18:42:45.802Z,274.67
2023-02-06T18:45:13.052Z,263.00
2023-02-06T18:47:42.397Z,277.10
2023-02-06T18:50:11.240Z,282.27
2023-02-06T18:55:10.737Z,280.53
2023-02-06T18:57:37.914Z,253.43
2023-02-06T19:00:08.228Z,254.40
2023-02-06T19:02:35.454Z,221.97
2023-02-06T19:05:02.839Z,284.40
2023-02-06T19:07:29.801Z,272.13
2023-02-06T19:10:01.581Z,268.13
2023-02-06T19:12:29.485Z,242.43
2023-02-06T19:14:57.690Z,282.70
2023-02-06T19:17:26.038Z,260.58
2023-02-06T19:19:53.980Z,305.13
2023-02-06T19:22:20.962Z,282.35
2023-02-06T19:24:48.510Z,259.80
2023-02-06T19:27:15.700Z,254.13
2023-02-06T19:29:43.100Z,276.98
2023-02-06T19:32:10.136Z,291.50
2023-02-06T19:34:39.922Z,415.40
2023-02-06T19:37:09.228Z,325.73
2023-02-06T19:39:38.196Z,320.07
2023-02-06T19:42:06.918Z,287.63
2023-02-06T19:44:34.240Z,352.43
2023-02-06T19:47:01.764Z,340.20
2023-02-06T19:49:29.671Z,316.55
2023-02-06T19:51:56.829Z,247.57
2023-02-06T19:54:24.022Z,300.20
2023-02-06T19:56:50.967Z,297.53
2023-02-06T19:59:21.975Z,281.63
2023-02-06T20:02:00.964Z,273.40
2023-02-06T20:04:34.648Z,258.87
2023-02-06T20:07:02.645Z,328.83
2023-02-06T20:11:58.000Z,322.25
2023-02-06T20:14:25.644Z,241.93
2023-02-06T20:16:53.023Z,268.20
2023-02-06T20:19:27.000Z,265.10
2023-02-06T20:21:57.674Z,270.70
2023-02-06T20:24:27.853Z,265.97
2023-02-06T20:26:57.871Z,290.97
2023-02-06T20:29:26.800Z,270.10
2023-02-06T20:31:54.775Z,254.63
2023-02-06T20:34:22.243Z,255.73
2023-02-06T20:36:50.588Z,267.33
2023-02-06T20:39:18.544Z,240.23
2023-02-06T20:41:46.027Z,278.80
2023-02-06T20:44:14.031Z,235.23
2023-02-06T20:46:42.596Z,279.70
2023-02-06T20:49:31.159Z,200.03
2023-02-06T20:51:58.514Z,233.97
2023-02-06T20:54:25.989Z,219.20
2023-02-06T20:56:53.277Z,207.23
2023-02-06T20:59:20.965Z,192.73
2023-02-06T21:01:48.429Z,212.93
2023-02-06T21:04:17.389Z,220.88
2023-02-06T21:06:46.581Z,244.40
2023-02-06T21:09:14.055Z,230.20
2023-02-06T21:11:44.329Z,207.03
2023-02-06T21:14:12.863Z,244.17
2023-02-06T21:16:40.429Z,208.88
2023-02-06T21:19:09.898Z,224.48
2023-02-06T21:21:37.888Z,236.87
2023-02-06T21:24:05.717Z,254.05
2023-02-06T21:26:33.471Z,250.82
2023-02-06T21:29:06.136Z,290.33
2023-02-06T21:31:37.839Z,190.27
2023-02-06T21:34:16.512Z,270.10
2023-02-06T21:36:44.086Z,244.88
2023-02-06T21:39:19.890Z,190.27
2023-02-06T21:41:47.950Z,243.23
2023-02-06T21:46:41.966Z,235.73
2023-02-06T21:49:11.622Z,266.30
2023-02-06T21:51:39.069Z,248.50
2023-02-06T21:54:06.683Z,261.95
2023-02-06T21:56:36.494Z,201.47
2023-02-06T21:59:05.375Z,257.43
2023-02-06T22:01:33.697Z,239.47
2023-02-06T22:04:02.550Z,203.77
2023-02-06T22:06:29.949Z,295.90
2023-02-06T22:09:02.736Z,248.35
2023-02-06T22:11:30.464Z,266.80
2023-02-06T22:13:59.804Z,226.80
2023-02-06T22:16:27.189Z,204.07
2023-02-06T22:18:54.976Z,197.35
2023-02-06T22:21:26.252Z,194.43
2023-02-06T22:23:57.077Z,227.57
2023-02-06T22:26:24.386Z,193.43
2023-02-06T22:28:51.713Z,170.68
2023-02-06T22:31:22.260Z,220.80
2023-02-06T22:33:50.359Z,163.67
2023-02-06T22:36:20.627Z,187.10
2023-02-06T22:38:52.318Z,199.73
2023-02-06T22:41:19.361Z,176.50
2023-02-06T22:43:49.367Z,134.15
2023-02-06T22:46:25.090Z,195.07
2023-02-06T22:48:52.823Z,169.23
2023-02-06T22:51:20.634Z,202.02
2023-02-06T22:53:48.284Z,167.00
2023-02-06T22:56:27.040Z,188.00
2023-02-06T22:59:01.219Z,138.47
2023-02-06T23:01:41.379Z,169.63
2023-02-06T23:04:16.692Z,170.50
2023-02-06T23:06:44.768Z,154.50
2023-02-06T23:11:40.457Z,137.90
2023-02-06T23:14:07.904Z,140.73
2023-02-06T23:16:35.735Z,141.53
2023-02-06T23:19:05.706Z,136.05
2023-02-06T23:21:36.674Z,114.60
2023-02-06T23:24:05.556Z,143.70
2023-02-06T23:26:33.005Z,98.90
2023-02-06T23:29:02.413Z,114.55
2023-02-06T23:31:29.564Z,167.97
2023-02-06T23:33:57.037Z,150.73
2023-02-06T23:36:25.566Z,134.53
2023-02-06T23:38:53.695Z,132.50
2023-02-06T23:41:25.908Z,128.30
2023-02-06T23:43:58.924Z,111.17
2023-02-06T23:46:27.932Z,124.27
2023-02-06T23:48:56.032Z,108.70
2023-02-06T23:51:24.039Z,104.50
2023-02-06T23:53:52.436Z,130.55
2023-02-06T23:56:38.238Z,102.25
2023-02-06T23:59:06.803Z,109.63
